createdAt,value
2023-04-11T00:00:46.325Z,18.30
2023-04-11T00:03:16.382Z,19.90
2023-04-11T00:05:45.978Z,19.60
2023-04-11T00:08:16.063Z,18.20
2023-04-11T00:10:45.497Z,19.20
2023-04-11T00:13:13.359Z,19.40
2023-04-11T00:15:42.652Z,20.30
2023-04-11T00:18:12.143Z,20.50
2023-04-11T00:20:43.354Z,18.90
2023-04-11T00:23:11.988Z,18.60
2023-04-11T00:25:39.373Z,18.20
2023-04-11T00:28:06.383Z,19.10
2023-04-11T00:30:33.836Z,19.20
2023-04-11T00:33:01.768Z,16.90
2023-04-11T00:35:33.988Z,20.20
2023-04-11T00:38:03.484Z,18.40
2023-04-11T00:40:32.093Z,19.40
2023-04-11T00:43:19.101Z,18.90
2023-04-11T00:45:46.479Z,19.10
2023-04-11T00:48:13.594Z,19.30
2023-04-11T00:50:41.705Z,18.40
2023-04-11T00:53:10.630Z,18.50
2023-04-11T00:55:37.840Z,18.00
2023-04-11T00:58:06.162Z,20.70
2023-04-11T01:00:35.106Z,19.20
2023-04-11T01:03:03.502Z,18.80
2023-04-11T01:05:34.405Z,18.40
2023-04-11T01:08:01.850Z,18.60
2023-04-11T01:10:31.347Z,18.60
2023-04-11T01:12:59.266Z,17.50
2023-04-11T01:15:29.067Z,19.50
2023-04-11T01:17:57.327Z,20.00
2023-04-11T01:20:25.989Z,21.80
2023-04-11T01:22:53.293Z,20.10
2023-04-11T01:25:22.838Z,22.50
2023-04-11T01:27:49.797Z,21.20
2023-04-11T01:30:17.033Z,21.60
2023-04-11T01:32:47.660Z,20.50
2023-04-11T01:35:14.811Z,19.70
2023-04-11T01:37:42.534Z,19.70
2023-04-11T01:40:10.172Z,18.60
2023-04-11T01:42:39.049Z,19.30
2023-04-11T01:45:06.952Z,19.60
2023-04-11T01:47:34.580Z,19.30
2023-04-11T01:50:03.099Z,19.50
2023-04-11T01:52:32.343Z,19.40
2023-04-11T01:55:00.543Z,17.80
2023-04-11T01:57:30.746Z,18.80
2023-04-11T02:00:01.242Z,19.60
2023-04-11T02:02:29.686Z,17.90
2023-04-11T02:04:58.046Z,17.30
2023-04-11T02:07:30.721Z,18.00
2023-04-11T02:10:00.854Z,16.60
2023-04-11T02:12:30.623Z,17.90
2023-04-11T02:14:58.870Z,18.00
2023-04-11T02:17:30.630Z,17.40
2023-04-11T02:19:59.005Z,18.60
2023-04-11T02:22:29.281Z,17.80
2023-04-11T02:24:57.103Z,18.00
2023-04-11T02:27:24.652Z,16.80
2023-04-11T02:29:54.833Z,17.50
2023-04-11T02:32:22.407Z,18.00
2023-04-11T02:34:49.462Z,16.90
2023-04-11T02:37:20.354Z,17.10
2023-04-11T02:39:48.540Z,18.20
2023-04-11T02:42:16.216Z,16.80
2023-04-11T02:44:44.354Z,17.90
2023-04-11T02:47:12.260Z,17.20
2023-04-11T02:49:42.253Z,17.70
2023-04-11T02:52:09.701Z,17.50
2023-04-11T02:54:36.690Z,17.70
2023-04-11T02:57:04.103Z,17.70
2023-04-11T02:59:31.692Z,18.80
2023-04-11T03:03:45.179Z,17.60
2023-04-11T03:06:14.600Z,18.50
2023-04-11T03:08:47.695Z,17.30
2023-04-11T03:11:17.532Z,17.90
2023-04-11T03:13:47.539Z,17.60
2023-04-11T03:16:20.536Z,18.30
2023-04-11T03:18:53.141Z,18.40
2023-04-11T03:21:23.412Z,20.00
2023-04-11T03:23:56.547Z,17.80
2023-04-11T03:26:29.092Z,19.00
2023-04-11T03:29:01.587Z,18.70
2023-04-11T03:31:34.773Z,17.00
2023-04-11T03:34:07.946Z,17.80
2023-04-11T03:36:37.698Z,19.70
2023-04-11T03:39:08.694Z,19.00
2023-04-11T03:41:38.503Z,18.90
2023-04-11T03:44:11.755Z,17.90
2023-04-11T03:46:42.159Z,17.70
2023-04-11T03:49:14.207Z,17.60
2023-04-11T03:51:43.427Z,17.90
2023-04-11T03:54:13.856Z,18.20
2023-04-11T03:56:43.362Z,18.70
2023-04-11T03:59:19.617Z,19.00
2023-04-11T04:01:54.869Z,17.00
2023-04-11T04:04:25.036Z,20.00
2023-04-11T04:07:10.174Z,19.70
2023-04-11T04:09:42.896Z,18.60
2023-04-11T04:12:13.477Z,19.20
2023-04-11T04:15:04.857Z,18.40
2023-04-11T04:17:35.092Z,18.20
2023-04-11T04:20:06.082Z,19.20
2023-04-11T04:22:41.459Z,21.50
2023-04-11T04:25:12.862Z,19.30
2023-04-11T04:30:19.400Z,18.60
2023-04-11T04:33:05.341Z,17.60
2023-04-11T04:35:36.330Z,19.20
2023-04-11T04:38:09.336Z,18.00
2023-04-11T04:40:50.492Z,18.30
2023-04-11T04:43:23.398Z,17.90
2023-04-11T04:46:00.485Z,17.80
2023-04-11T04:48:36.622Z,18.00
2023-04-11T04:51:08.979Z,18.10
2023-04-11T04:53:48.094Z,17.30
2023-04-11T04:56:21.986Z,17.10
2023-04-11T04:58:51.212Z,17.10
2023-04-11T05:01:28.564Z,17.80
2023-04-11T05:04:02.810Z,17.30
2023-04-11T05:06:45.164Z,16.80
2023-04-11T05:09:16.892Z,15.40
2023-04-11T05:11:48.649Z,15.80
2023-04-11T05:14:18.879Z,16.70
2023-04-11T05:16:58.958Z,15.50
2023-04-11T05:19:34.481Z,17.10
2023-04-11T05:22:05.679Z,15.80
2023-04-11T05:24:37.408Z,15.70
2023-04-11T05:27:11.918Z,15.00
2023-04-11T05:29:41.236Z,15.90
2023-04-11T05:35:02.037Z,18.20
2023-04-11T05:37:44.426Z,16.00
2023-04-11T05:40:20.110Z,13.30
2023-04-11T05:42:51.002Z,14.50
2023-04-11T05:45:25.249Z,13.70
2023-04-11T05:48:00.507Z,14.10
2023-04-11T05:50:35.528Z,14.10
2023-04-11T05:53:06.953Z,13.60
2023-04-11T05:55:39.215Z,14.40
2023-04-11T05:58:11.140Z,13.40
2023-04-11T06:03:18.623Z,12.10
2023-04-11T06:05:54.539Z,11.80
2023-04-11T06:08:26.301Z,12.20
2023-04-11T06:10:59.680Z,11.30
2023-04-11T06:13:31.328Z,9.70
2023-04-11T06:16:03.675Z,9.70
2023-04-11T06:18:33.986Z,11.30
2023-04-11T06:21:08.294Z,11.90
2023-04-11T06:23:38.027Z,8.90
2023-04-11T06:26:09.720Z,7.30
2023-04-11T06:28:40.881Z,7.60
2023-04-11T06:31:09.968Z,10.40
2023-04-11T06:33:44.224Z,9.00
2023-04-11T06:36:17.285Z,8.80
2023-04-11T06:41:19.688Z,6.10
2023-04-11T06:43:49.666Z,6.90
2023-04-11T06:46:22.074Z,8.30
2023-04-11T06:48:51.751Z,7.40
2023-04-11T06:51:21.972Z,6.90
2023-04-11T06:53:59.989Z,6.30
2023-04-11T06:56:33.791Z,7.20
2023-04-11T06:59:05.330Z,6.60
2023-04-11T07:01:38.386Z,6.00
2023-04-11T07:04:07.720Z,5.50
2023-04-11T07:06:42.377Z,5.60
2023-04-11T07:09:16.093Z,5.90
2023-04-11T07:11:49.057Z,5.60
2023-04-11T07:14:27.771Z,6.10
2023-04-11T07:17:03.511Z,5.60
2023-04-11T07:19:33.536Z,5.90
2023-04-11T07:22:03.470Z,5.90
2023-04-11T07:24:33.083Z,5.70
2023-04-11T07:27:02.422Z,6.20
2023-04-11T07:29:37.613Z,5.80
2023-04-11T07:32:06.714Z,6.70
2023-04-11T07:34:36.084Z,6.40
2023-04-11T07:37:05.861Z,5.70
2023-04-11T07:39:35.476Z,5.80
2023-04-11T07:42:07.587Z,5.90
2023-04-11T07:44:38.485Z,5.80
2023-04-11T07:47:07.532Z,6.20
2023-04-11T07:49:37.556Z,5.50
2023-04-11T07:52:14.068Z,5.00
2023-04-11T07:54:45.316Z,5.20
2023-04-11T07:57:15.410Z,5.60
2023-04-11T07:59:52.489Z,6.60
2023-04-11T08:02:21.843Z,5.20
2023-04-11T08:04:59.795Z,6.20
2023-04-11T08:07:46.726Z,5.70
2023-04-11T08:10:17.308Z,5.90
2023-04-11T08:12:50.258Z,6.60
2023-04-11T08:15:25.662Z,5.90
2023-04-11T08:17:56.966Z,7.00
2023-04-11T08:20:25.865Z,6.40
2023-04-11T08:22:56.857Z,5.50
2023-04-11T08:25:25.842Z,5.40
2023-04-11T08:27:58.055Z,5.90
2023-04-11T08:30:30.935Z,5.60
2023-04-11T08:33:04.943Z,5.60
2023-04-11T08:35:38.115Z,5.20
2023-04-11T08:38:11.150Z,5.10
2023-04-11T08:40:39.935Z,5.70
2023-04-11T08:43:12.477Z,5.60
2023-04-11T08:45:42.215Z,6.10
2023-04-11T08:48:14.877Z,5.10
2023-04-11T08:50:44.624Z,5.50
2023-04-11T08:53:22.276Z,5.90
2023-04-11T08:55:55.241Z,5.40
2023-04-11T08:58:25.180Z,5.10
2023-04-11T09:00:59.016Z,4.60
2023-04-11T09:03:29.159Z,5.20
2023-04-11T09:06:11.309Z,5.50
2023-04-11T09:08:50.457Z,5.30
2023-04-11T09:11:25.907Z,4.50
2023-04-11T09:14:09.222Z,4.30
2023-04-11T09:16:38.598Z,4.30
2023-04-11T09:19:15.234Z,5.70
2023-04-11T09:21:51.427Z,5.30
2023-04-11T09:24:20.422Z,4.80
2023-04-11T09:26:49.057Z,4.80
2023-04-11T09:29:35.245Z,4.40
2023-04-11T09:32:06.708Z,5.00
2023-04-11T09:34:37.890Z,3.80
2023-04-11T09:37:06.983Z,4.10
2023-04-11T09:39:37.365Z,3.10
2023-04-11T09:42:26.252Z,4.80
2023-04-11T09:44:54.688Z,4.60
2023-04-11T09:47:23.769Z,4.40
2023-04-11T09:49:53.215Z,4.30
2023-04-11T09:52:22.290Z,4.00
2023-04-11T09:54:50.931Z,4.40
2023-04-11T09:57:20.879Z,3.30
2023-04-11T09:59:50.448Z,4.80
2023-04-11T10:02:19.270Z,3.90
2023-04-11T10:04:51.800Z,5.40
2023-04-11T10:07:24.576Z,3.90
2023-04-11T10:09:59.678Z,3.80
2023-04-11T10:12:35.414Z,4.50
2023-04-11T10:15:11.716Z,4.60
2023-04-11T10:17:41.431Z,4.10
2023-04-11T10:20:31.800Z,4.50
2023-04-11T10:23:01.561Z,5.00
2023-04-11T10:25:50.082Z,5.30
2023-04-11T10:28:32.960Z,4.50
2023-04-11T10:31:07.878Z,4.50
2023-04-11T10:33:38.138Z,4.10
2023-04-11T10:36:11.505Z,4.80
2023-04-11T10:38:43.869Z,4.10
2023-04-11T10:41:22.924Z,3.10
2023-04-11T10:43:52.665Z,3.60
2023-04-11T10:46:24.379Z,3.30
2023-04-11T10:49:04.698Z,3.60
2023-04-11T10:51:39.836Z,3.60
2023-04-11T10:54:26.006Z,3.20
2023-04-11T10:57:02.286Z,3.70
2023-04-11T10:59:32.442Z,4.70
2023-04-11T11:02:02.454Z,3.70
2023-04-11T11:04:35.105Z,3.90
2023-04-11T11:07:16.436Z,4.20
2023-04-11T11:09:50.953Z,3.30
2023-04-11T11:12:19.970Z,3.40
2023-04-11T11:14:50.393Z,3.60
2023-04-11T11:17:22.977Z,4.40
2023-04-11T11:19:53.616Z,3.90
2023-04-11T11:22:26.336Z,3.90
2023-04-11T11:24:54.863Z,5.10
2023-04-11T11:27:25.433Z,6.40
2023-04-11T11:29:55.568Z,5.70
2023-04-11T11:32:29.066Z,5.30
2023-04-11T11:35:00.904Z,5.30
2023-04-11T11:37:30.620Z,4.70
2023-04-11T11:39:59.268Z,4.30
2023-04-11T11:42:28.987Z,3.80
2023-04-11T11:45:20.695Z,4.20
2023-04-11T11:47:51.981Z,4.10
2023-04-11T11:50:30.010Z,3.60
2023-04-11T11:53:22.899Z,4.10
2023-04-11T11:55:53.903Z,4.00
2023-04-11T11:58:27.705Z,6.10
2023-04-11T12:00:59.708Z,4.60
2023-04-11T12:03:30.262Z,4.60
2023-04-11T12:06:01.389Z,5.30
2023-04-11T12:08:33.536Z,4.80
2023-04-11T12:11:03.208Z,4.40
2023-04-11T12:13:34.206Z,4.10
2023-04-11T12:16:05.136Z,4.40
2023-04-11T12:18:35.488Z,4.20
2023-04-11T12:21:05.041Z,4.40
2023-04-11T12:23:34.342Z,4.20
2023-04-11T12:26:04.495Z,4.10
2023-04-11T12:28:34.728Z,5.20
2023-04-11T12:31:04.297Z,4.30
2023-04-11T12:33:35.608Z,4.50
2023-04-11T12:36:09.919Z,4.40
2023-04-11T12:38:43.959Z,5.20
2023-04-11T12:41:31.797Z,4.00
2023-04-11T12:44:02.707Z,4.80
2023-04-11T12:46:31.553Z,4.90
2023-04-11T12:49:01.101Z,6.80
2023-04-11T12:51:31.624Z,5.50
2023-04-11T12:54:00.841Z,4.60
2023-04-11T12:56:35.848Z,5.60
2023-04-11T12:59:05.359Z,4.90
2023-04-11T13:01:38.119Z,4.60
2023-04-11T13:04:14.373Z,4.80
2023-04-11T13:06:44.124Z,4.50
2023-04-11T13:09:15.230Z,4.60
2023-04-11T13:12:04.208Z,3.90
2023-04-11T13:14:33.421Z,4.80
2023-04-11T13:17:10.828Z,4.70
2023-04-11T13:22:12.616Z,3.70
2023-04-11T13:24:42.231Z,4.10
2023-04-11T13:27:11.449Z,3.90
2023-04-11T13:29:40.213Z,5.90
2023-04-11T13:32:09.589Z,5.70
2023-04-11T13:34:46.489Z,4.30
2023-04-11T13:37:16.713Z,4.50
2023-04-11T13:39:46.518Z,3.70
2023-04-11T13:42:22.044Z,5.40
2023-04-11T13:44:50.560Z,4.50
2023-04-11T13:47:19.526Z,4.80
2023-04-11T13:49:54.527Z,4.80
2023-04-11T13:52:25.544Z,5.20
2023-04-11T13:54:56.094Z,4.20
2023-04-11T13:57:29.160Z,6.40
2023-04-11T14:00:23.261Z,5.90
2023-04-11T14:03:02.805Z,4.60
2023-04-11T14:05:37.177Z,4.00
2023-04-11T14:08:08.985Z,3.90
2023-04-11T14:10:40.512Z,3.80
2023-04-11T14:13:13.126Z,3.90
2023-04-11T14:15:47.682Z,4.60
2023-04-11T14:18:19.325Z,3.70
2023-04-11T14:20:51.933Z,3.60
2023-04-11T14:23:24.464Z,4.40
2023-04-11T14:25:57.165Z,4.40
2023-04-11T14:28:33.822Z,4.80
2023-04-11T14:31:03.060Z,4.70
2023-04-11T14:33:33.571Z,6.70
2023-04-11T14:36:03.121Z,4.60
2023-04-11T14:41:07.566Z,4.00
2023-04-11T14:43:36.323Z,4.10
2023-04-11T14:46:09.914Z,4.20
2023-04-11T14:48:39.485Z,4.30
2023-04-11T14:51:09.591Z,3.60
2023-04-11T14:53:40.311Z,4.20
2023-04-11T14:56:14.900Z,5.10
2023-04-11T14:59:02.291Z,5.20
2023-04-11T15:01:33.867Z,5.30
2023-04-11T15:04:03.785Z,5.10
2023-04-11T15:06:44.613Z,4.50
2023-04-11T15:09:14.203Z,4.80
2023-04-11T15:11:42.945Z,4.70
2023-04-11T15:14:16.308Z,5.90
2023-04-11T15:16:45.583Z,4.20
2023-04-11T15:19:17.715Z,5.10
2023-04-11T15:24:19.573Z,5.50
2023-04-11T15:26:55.140Z,5.80
2023-04-11T15:29:24.198Z,5.40
2023-04-11T15:31:54.900Z,5.40
2023-04-11T15:34:27.205Z,4.80
2023-04-11T15:37:01.526Z,6.60
2023-04-11T15:39:30.750Z,5.40
2023-04-11T15:42:05.468Z,6.40
2023-04-11T15:44:36.892Z,5.90
2023-04-11T15:47:07.863Z,7.30
2023-04-11T15:49:42.184Z,6.80
2023-04-11T15:52:15.547Z,6.60
2023-04-11T15:54:52.084Z,8.10
2023-04-11T15:57:27.658Z,8.20
2023-04-11T15:59:59.499Z,9.10
2023-04-11T16:02:29.666Z,8.70
2023-04-11T16:05:03.739Z,8.50
2023-04-11T16:07:32.885Z,8.00
2023-04-11T16:10:03.777Z,8.20
2023-04-11T16:12:34.014Z,8.70
2023-04-11T16:15:06.382Z,9.00
2023-04-11T16:17:40.345Z,7.90
2023-04-11T16:20:12.062Z,6.60
2023-04-11T16:22:41.036Z,8.30
2023-04-11T16:25:11.653Z,9.20
2023-04-11T16:27:43.777Z,8.40
2023-04-11T16:30:14.022Z,7.00
2023-04-11T16:32:51.477Z,8.30
2023-04-11T16:35:20.058Z,8.00
2023-04-11T16:37:56.809Z,7.70
2023-04-11T16:40:27.269Z,6.70
2023-04-11T16:42:55.889Z,6.20
2023-04-11T16:45:26.249Z,8.60
2023-04-11T16:47:58.553Z,8.20
2023-04-11T16:50:28.395Z,8.30
2023-04-11T16:52:59.974Z,8.40
2023-04-11T16:55:30.530Z,6.50
2023-04-11T16:58:00.631Z,6.70
2023-04-11T17:00:30.980Z,7.10
2023-04-11T17:03:02.459Z,8.20
2023-04-11T17:05:35.281Z,6.90
2023-04-11T17:08:08.930Z,6.80
2023-04-11T17:10:38.141Z,6.90
2023-04-11T17:13:11.976Z,7.50
2023-04-11T17:15:41.809Z,8.90
2023-04-11T17:18:17.610Z,8.50
2023-04-11T17:20:53.253Z,8.30
2023-04-11T17:23:35.126Z,7.70
2023-04-11T17:26:12.918Z,8.50
2023-04-11T17:28:42.956Z,9.60
2023-04-11T17:31:19.296Z,8.60
2023-04-11T17:33:48.604Z,8.80
2023-04-11T17:36:20.324Z,10.10
2023-04-11T17:38:54.743Z,10.50
2023-04-11T17:41:25.321Z,9.10
2023-04-11T17:43:56.599Z,10.10
2023-04-11T17:46:27.331Z,15.10
2023-04-11T17:48:56.388Z,13.60
2023-04-11T17:51:28.335Z,13.50
2023-04-11T17:54:01.698Z,12.80
2023-04-11T17:56:31.628Z,10.40
2023-04-11T17:59:00.350Z,8.60
2023-04-11T18:01:33.634Z,10.10
2023-04-11T18:04:07.857Z,9.40
2023-04-11T18:06:36.741Z,10.10
2023-04-11T18:09:09.612Z,11.50
2023-04-11T18:11:39.558Z,11.10
2023-04-11T18:14:08.884Z,10.30
2023-04-11T18:16:43.352Z,12.10
2023-04-11T18:19:19.240Z,10.90
2023-04-11T18:21:58.512Z,11.90
2023-04-11T18:24:32.479Z,10.80
2023-04-11T18:27:05.287Z,11.70
2023-04-11T18:29:36.062Z,11.00
2023-04-11T18:32:07.045Z,11.10
2023-04-11T18:34:36.901Z,9.60
2023-04-11T18:37:05.445Z,11.50
2023-04-11T18:39:35.855Z,10.80
2023-04-11T18:42:06.637Z,10.00
2023-04-11T18:44:36.628Z,10.70
2023-04-11T18:47:06.862Z,24.40
2023-04-11T18:49:41.674Z,16.00
2023-04-11T18:52:12.476Z,15.50
2023-04-11T18:54:47.245Z,9.70
2023-04-11T18:57:16.003Z,10.60
2023-04-11T18:59:49.792Z,8.90
2023-04-11T19:02:22.266Z,8.40
2023-04-11T19:04:55.522Z,7.30
2023-04-11T19:07:31.342Z,7.60
2023-04-11T19:10:18.916Z,8.20
2023-04-11T19:12:48.942Z,6.50
2023-04-11T19:15:21.239Z,6.80
2023-04-11T19:20:19.407Z,8.10
2023-04-11T19:22:57.963Z,9.90
2023-04-11T19:25:26.558Z,12.00
2023-04-11T19:27:59.911Z,9.30
2023-04-11T19:30:35.754Z,7.60
2023-04-11T19:33:07.271Z,6.90
2023-04-11T19:35:37.626Z,7.50
2023-04-11T19:38:07.622Z,8.10
2023-04-11T19:40:42.071Z,7.50
2023-04-11T19:43:11.424Z,7.70
2023-04-11T19:45:43.518Z,9.00
2023-04-11T19:50:45.332Z,8.70
2023-04-11T19:53:15.523Z,8.70
2023-04-11T19:55:46.056Z,9.30
2023-04-11T19:58:14.672Z,8.70
2023-04-11T20:00:46.109Z,8.70
2023-04-11T20:03:18.222Z,9.30
2023-04-11T20:05:48.720Z,8.40
2023-04-11T20:08:19.500Z,7.40
2023-04-11T20:10:52.259Z,5.90
2023-04-11T20:13:34.826Z,8.30
2023-04-11T20:16:10.093Z,6.30
2023-04-11T20:18:44.437Z,8.60
2023-04-11T20:21:19.477Z,7.90
2023-04-11T20:23:51.815Z,6.90
2023-04-11T20:26:22.574Z,7.30
2023-04-11T20:28:51.423Z,7.60
2023-04-11T20:31:21.032Z,7.70
2023-04-11T20:33:49.547Z,7.30
2023-04-11T20:36:23.859Z,8.10
2023-04-11T20:39:02.304Z,7.80
2023-04-11T20:41:32.458Z,7.60
2023-04-11T20:44:01.661Z,6.80
2023-04-11T20:46:39.934Z,6.00
2023-04-11T20:49:09.152Z,7.40
2023-04-11T20:51:42.855Z,7.30
2023-04-11T20:54:11.596Z,8.10
2023-04-11T20:56:40.283Z,7.60
2023-04-11T20:59:15.127Z,8.80
2023-04-11T21:01:44.227Z,8.70
2023-04-11T21:04:18.725Z,8.10
2023-04-11T21:06:50.223Z,9.60
2023-04-11T21:09:22.197Z,8.80
2023-04-11T21:11:51.134Z,8.80
2023-04-11T21:14:21.292Z,8.00
2023-04-11T21:16:50.948Z,7.90
2023-04-11T21:19:19.478Z,7.20
2023-04-11T21:21:55.240Z,8.90
2023-04-11T21:24:23.891Z,7.80
2023-04-11T21:26:53.327Z,9.00
2023-04-11T21:29:27.541Z,6.40
2023-04-11T21:31:59.813Z,6.40
2023-04-11T21:34:29.537Z,6.50
2023-04-11T21:37:00.153Z,7.00
2023-04-11T21:39:33.046Z,6.90
2023-04-11T21:42:02.598Z,6.40
2023-04-11T21:44:31.199Z,7.00
2023-04-11T21:47:00.216Z,6.20
2023-04-11T21:49:28.765Z,5.60
2023-04-11T21:52:02.039Z,5.90
2023-04-11T21:54:30.795Z,5.90
2023-04-11T21:56:59.157Z,5.80
2023-04-11T21:59:35.188Z,6.00
2023-04-11T22:02:03.962Z,6.10
2023-04-11T22:04:39.030Z,6.30
2023-04-11T22:07:15.800Z,5.90
2023-04-11T22:09:46.501Z,6.30
2023-04-11T22:12:17.869Z,5.70
2023-04-11T22:14:53.092Z,6.30
2023-04-11T22:17:22.876Z,6.70
2023-04-11T22:19:51.978Z,7.40
2023-04-11T22:22:23.432Z,5.50
2023-04-11T22:24:53.721Z,7.30
2023-04-11T22:27:22.639Z,6.90
2023-04-11T22:29:56.277Z,5.00
2023-04-11T22:32:24.895Z,6.00
2023-04-11T22:34:54.682Z,6.50
2023-04-11T22:37:23.157Z,6.70
2023-04-11T22:39:52.222Z,6.50
2023-04-11T22:42:21.293Z,6.30
2023-04-11T22:44:50.273Z,7.70
2023-04-11T22:47:22.052Z,6.90
2023-04-11T22:49:52.574Z,6.70
2023-04-11T22:52:26.334Z,6.30
2023-04-11T22:54:55.485Z,7.60
2023-04-11T22:57:23.950Z,6.90
2023-04-11T22:59:58.182Z,7.00
2023-04-11T23:02:31.884Z,7.40
2023-04-11T23:05:02.930Z,7.50
2023-04-11T23:07:33.227Z,8.00
2023-04-11T23:10:05.403Z,7.40
2023-04-11T23:12:41.881Z,8.40
2023-04-11T23:15:11.478Z,8.30
2023-04-11T23:20:22.916Z,8.90
2023-04-11T23:22:54.007Z,8.50
2023-04-11T23:25:23.028Z,9.10
2023-04-11T23:27:55.262Z,9.70
2023-04-11T23:30:25.204Z,9.30
2023-04-11T23:33:09.578Z,10.50
2023-04-11T23:35:42.260Z,11.10
2023-04-11T23:38:12.117Z,13.70
2023-04-11T23:40:42.692Z,17.90
2023-04-11T23:43:13.012Z,18.10
2023-04-11T23:45:41.873Z,19.30
2023-04-11T23:48:10.245Z,20.60
2023-04-11T23:50:40.220Z,20.50
2023-04-11T23:53:09.625Z,20.90
2023-04-11T23:55:40.864Z,25.40
2023-04-11T23:58:10.733Z,21.50
